sensor_id;sensor_type;location;lat;lon;timestamp;pressure;altitude;pressure_sealevel;temperature;humidity
60049;BME280;66154;45.544;6.756;2024-02-21T00:01:31;87822.38;;;2.12;60.13
60049;BME280;66154;45.544;6.756;2024-02-21T00:06:31;87809.38;;;2.09;60.35
60049;BME280;66154;45.544;6.756;2024-02-21T00:11:32;87808.25;;;2.06;59.95
60049;BME280;66154;45.544;6.756;2024-02-21T00:16:33;87810.44;;;2.04;60.43
60049;BME280;66154;45.544;6.756;2024-02-21T00:21:33;87809.25;;;1.98;60.34
60049;BME280;66154;45.544;6.756;2024-02-21T00:26:34;87791.06;;;1.95;60.10
60049;BME280;66154;45.544;6.756;2024-02-21T00:31:34;87794.69;;;1.90;59.95
60049;BME280;66154;45.544;6.756;2024-02-21T00:36:34;87796.84;;;1.84;60.72
60049;BME280;66154;45.544;6.756;2024-02-21T00:41:35;87800.47;;;1.80;60.34
60049;BME280;66154;45.544;6.756;2024-02-21T00:46:35;87807.09;;;1.77;60.31
60049;BME280;66154;45.544;6.756;2024-02-21T00:51:38;87800.78;;;1.75;59.33
60049;BME280;66154;45.544;6.756;2024-02-21T00:56:39;87804.78;;;1.72;60.06
60049;BME280;66154;45.544;6.756;2024-02-21T01:01:40;87795.88;;;1.70;60.27
60049;BME280;66154;45.544;6.756;2024-02-21T01:06:43;87813.69;;;1.71;60.36
60049;BME280;66154;45.544;6.756;2024-02-21T01:11:44;87811.09;;;1.71;60.71
60049;BME280;66154;45.544;6.756;2024-02-21T01:16:44;87803.31;;;1.71;60.26
60049;BME280;66154;45.544;6.756;2024-02-21T01:21:45;87789.25;;;1.72;60.19
60049;BME280;66154;45.544;6.756;2024-02-21T01:26:45;87779.63;;;1.73;60.11
60049;BME280;66154;45.544;6.756;2024-02-21T01:31:46;87784.81;;;1.73;60.42
60049;BME280;66154;45.544;6.756;2024-02-21T01:36:47;87778.53;;;1.74;60.44
60049;BME280;66154;45.544;6.756;2024-02-21T01:41:48;87785.66;;;1.80;58.15
60049;BME280;66154;45.544;6.756;2024-02-21T01:46:48;87778.50;;;1.97;61.61
60049;BME280;66154;45.544;6.756;2024-02-21T01:51:49;87772.00;;;2.10;60.06
60049;BME280;66154;45.544;6.756;2024-02-21T01:56:50;87774.63;;;2.13;59.79
60049;BME280;66154;45.544;6.756;2024-02-21T02:01:51;87761.66;;;2.13;59.67
60049;BME280;66154;45.544;6.756;2024-02-21T02:06:54;87750.19;;;2.14;60.05
60049;BME280;66154;45.544;6.756;2024-02-21T02:11:55;87739.41;;;2.12;59.83
60049;BME280;66154;45.544;6.756;2024-02-21T02:16:55;87730.16;;;2.11;59.79
60049;BME280;66154;45.544;6.756;2024-02-21T02:22:01;87738.28;;;2.10;60.37
60049;BME280;66154;45.544;6.756;2024-02-21T02:27:07;87732.34;;;2.09;60.30
60049;BME280;66154;45.544;6.756;2024-02-21T02:32:07;87730.88;;;2.08;60.50
60049;BME280;66154;45.544;6.756;2024-02-21T02:37:08;87727.50;;;2.08;60.53
60049;BME280;66154;45.544;6.756;2024-02-21T02:42:08;87728.19;;;2.05;60.64
60049;BME280;66154;45.544;6.756;2024-02-21T02:47:09;87711.47;;;1.99;60.40
60049;BME280;66154;45.544;6.756;2024-02-21T02:52:09;87708.81;;;1.95;60.31
60049;BME280;66154;45.544;6.756;2024-02-21T02:57:10;87708.03;;;1.91;60.26
60049;BME280;66154;45.544;6.756;2024-02-21T03:02:10;87696.19;;;1.90;60.39
60049;BME280;66154;45.544;6.756;2024-02-21T03:07:11;87692.06;;;1.89;58.99
60049;BME280;66154;45.544;6.756;2024-02-21T03:12:12;87693.22;;;1.92;60.25
60049;BME280;66154;45.544;6.756;2024-02-21T03:17:12;87688.44;;;1.94;60.64
60049;BME280;66154;45.544;6.756;2024-02-21T03:22:13;87685.16;;;1.97;60.41
60049;BME280;66154;45.544;6.756;2024-02-21T03:27:13;87685.91;;;2.01;59.64
60049;BME280;66154;45.544;6.756;2024-02-21T03:32:14;87677.09;;;2.05;58.87
60049;BME280;66154;45.544;6.756;2024-02-21T03:37:14;87659.00;;;2.12;59.86
60049;BME280;66154;45.544;6.756;2024-02-21T03:42:15;87652.78;;;2.17;60.11
60049;BME280;66154;45.544;6.756;2024-02-21T03:47:15;87664.66;;;2.18;59.90
60049;BME280;66154;45.544;6.756;2024-02-21T03:52:16;87651.34;;;2.19;60.14
60049;BME280;66154;45.544;6.756;2024-02-21T03:57:17;87641.72;;;2.20;60.07
60049;BME280;66154;45.544;6.756;2024-02-21T04:02:17;87656.53;;;2.19;59.74
60049;BME280;66154;45.544;6.756;2024-02-21T04:07:18;87652.78;;;2.17;59.72
60049;BME280;66154;45.544;6.756;2024-02-21T04:12:18;87650.50;;;2.12;59.78
60049;BME280;66154;45.544;6.756;2024-02-21T04:17:19;87641.56;;;2.06;59.75
60049;BME280;66154;45.544;6.756;2024-02-21T04:22:20;87640.38;;;2.00;59.64
60049;BME280;66154;45.544;6.756;2024-02-21T04:27:20;87639.19;;;1.94;59.53
60049;BME280;66154;45.544;6.756;2024-02-21T04:32:21;87634.72;;;1.91;58.99
60049;BME280;66154;45.544;6.756;2024-02-21T04:37:21;87628.38;;;1.88;58.44
60049;BME280;66154;45.544;6.756;2024-02-21T04:42:22;87632.81;;;1.88;58.68
60049;BME280;66154;45.544;6.756;2024-02-21T04:47:22;87640.22;;;1.89;59.21
60049;BME280;66154;45.544;6.756;2024-02-21T04:52:26;87648.00;;;1.89;59.17
60049;BME280;66154;45.544;6.756;2024-02-21T04:57:27;87643.16;;;1.84;59.09
60049;BME280;66154;45.544;6.756;2024-02-21T05:02:27;87637.16;;;1.80;58.86
60049;BME280;66154;45.544;6.756;2024-02-21T05:07:28;87630.06;;;1.73;59.18
60049;BME280;66154;45.544;6.756;2024-02-21T05:12:29;87610.75;;;1.67;59.11
60049;BME280;66154;45.544;6.756;2024-02-21T05:17:30;87598.47;;;1.64;59.18
60049;BME280;66154;45.544;6.756;2024-02-21T05:22:30;87592.91;;;1.62;58.96
60049;BME280;66154;45.544;6.756;2024-02-21T05:27:31;87591.06;;;1.63;58.88
60049;BME280;66154;45.544;6.756;2024-02-21T05:32:32;87586.25;;;1.61;58.85
60049;BME280;66154;45.544;6.756;2024-02-21T05:37:32;87590.66;;;1.61;59.01
60049;BME280;66154;45.544;6.756;2024-02-21T05:42:33;87595.09;;;1.60;59.00
60049;BME280;66154;45.544;6.756;2024-02-21T05:47:33;87592.13;;;1.58;58.83
60049;BME280;66154;45.544;6.756;2024-02-21T05:52:34;87586.53;;;1.56;59.00
60049;BME280;66154;45.544;6.756;2024-02-21T05:57:34;87595.03;;;1.53;58.90
60049;BME280;66154;45.544;6.756;2024-02-21T06:02:35;87589.84;;;1.53;58.79
60049;BME280;66154;45.544;6.756;2024-02-21T06:07:36;87585.06;;;1.55;58.87
60049;BME280;66154;45.544;6.756;2024-02-21T06:12:36;87581.34;;;1.56;58.42
60049;BME280;66154;45.544;6.756;2024-02-21T06:17:37;87585.13;;;1.62;58.38
60049;BME280;66154;45.544;6.756;2024-02-21T06:22:37;87586.31;;;1.68;58.65
60049;BME280;66154;45.544;6.756;2024-02-21T06:27:38;87590.09;;;1.74;59.04
60049;BME280;66154;45.544;6.756;2024-02-21T06:32:38;87587.19;;;1.79;58.39
60049;BME280;66154;45.544;6.756;2024-02-21T06:37:39;87596.16;;;1.89;58.52
60049;BME280;66154;45.544;6.756;2024-02-21T06:42:39;87599.25;;;1.98;58.80
60049;BME280;66154;45.544;6.756;2024-02-21T06:47:40;87600.06;;;2.06;59.56
60049;BME280;66154;45.544;6.756;2024-02-21T06:52:40;87596.44;;;2.14;58.37
60049;BME280;66154;45.544;6.756;2024-02-21T06:57:41;87596.91;;;2.23;59.22
60049;BME280;66154;45.544;6.756;2024-02-21T07:02:42;87604.41;;;2.31;59.02
60049;BME280;66154;45.544;6.756;2024-02-21T07:07:42;87606.69;;;2.40;58.51
60049;BME280;66154;45.544;6.756;2024-02-21T07:12:42;87605.66;;;2.48;58.47
60049;BME280;66154;45.544;6.756;2024-02-21T07:17:43;87612.41;;;2.56;58.26
60049;BME280;66154;45.544;6.756;2024-02-21T07:22:44;87618.41;;;2.63;58.31
60049;BME280;66154;45.544;6.756;2024-02-21T07:27:44;87622.91;;;2.70;58.21
60049;BME280;66154;45.544;6.756;2024-02-21T07:32:45;87634.84;;;2.78;58.63
60049;BME280;66154;45.544;6.756;2024-02-21T07:37:46;87633.78;;;2.86;58.45
60049;BME280;66154;45.544;6.756;2024-02-21T07:42:46;87624.59;;;2.96;58.24
60049;BME280;66154;45.544;6.756;2024-02-21T07:47:47;87620.97;;;3.07;58.57
60049;BME280;66154;45.544;6.756;2024-02-21T07:52:47;87605.13;;;3.19;58.50
60049;BME280;66154;45.544;6.756;2024-02-21T07:57:48;87608.91;;;3.32;59.08
60049;BME280;66154;45.544;6.756;2024-02-21T08:02:49;87607.09;;;3.43;58.08
60049;BME280;66154;45.544;6.756;2024-02-21T08:07:51;87601.63;;;3.55;58.55
60049;BME280;66154;45.544;6.756;2024-02-21T08:12:52;87603.53;;;3.65;58.12
60049;BME280;66154;45.544;6.756;2024-02-21T08:17:52;87608.75;;;3.76;57.81
60049;BME280;66154;45.544;6.756;2024-02-21T08:22:53;87605.84;;;3.88;57.72
60049;BME280;66154;45.544;6.756;2024-02-21T08:27:57;87607.00;;;4.01;57.19
60049;BME280;66154;45.544;6.756;2024-02-21T08:32:58;87603.75;;;4.18;56.39
60049;BME280;66154;45.544;6.756;2024-02-21T08:37:58;87603.78;;;4.36;57.93
60049;BME280;66154;45.544;6.756;2024-02-21T08:42:59;87600.50;;;4.53;57.97
60049;BME280;66154;45.544;6.756;2024-02-21T08:47:59;87596.03;;;4.71;58.21
60049;BME280;66154;45.544;6.756;2024-02-21T08:53:00;87603.13;;;4.88;58.09
60049;BME280;66154;45.544;6.756;2024-02-21T08:58:01;87605.75;;;5.02;54.98
60049;BME280;66154;45.544;6.756;2024-02-21T09:03:04;87597.19;;;5.12;56.58
60049;BME280;66154;45.544;6.756;2024-02-21T09:08:05;87591.25;;;5.22;58.14
60049;BME280;66154;45.544;6.756;2024-02-21T09:13:06;87598.66;;;5.31;58.36
60049;BME280;66154;45.544;6.756;2024-02-21T09:18:08;87594.19;;;5.42;57.55
60049;BME280;66154;45.544;6.756;2024-02-21T09:23:09;87586.34;;;5.52;57.53
60049;BME280;66154;45.544;6.756;2024-02-21T09:28:10;87584.47;;;5.64;58.02
60049;BME280;66154;45.544;6.756;2024-02-21T09:33:10;87593.00;;;5.78;58.40
60049;BME280;66154;45.544;6.756;2024-02-21T09:38:11;87584.03;;;5.97;56.36
60049;BME280;66154;45.544;6.756;2024-02-21T09:43:17;87576.91;;;6.15;55.31
60049;BME280;66154;45.544;6.756;2024-02-21T09:53:56;87569.19;;;6.63;58.67
60049;BME280;66154;45.544;6.756;2024-02-21T09:58:57;87574.66;;;6.82;53.08
60049;BME280;66154;45.544;6.756;2024-02-21T10:03:58;87573.47;;;6.94;55.79
60049;BME280;66154;45.544;6.756;2024-02-21T10:08:59;87578.94;;;7.10;58.05
60049;BME280;66154;45.544;6.756;2024-02-21T10:14:08;87583.31;;;7.23;56.35
60049;BME280;66154;45.544;6.756;2024-02-21T10:19:19;87579.88;;;7.33;57.65
60049;BME280;66154;45.544;6.756;2024-02-21T10:24:26;87583.16;;;7.45;57.54
60049;BME280;66154;45.544;6.756;2024-02-21T10:29:27;87576.00;;;7.52;58.02
60049;BME280;66154;45.544;6.756;2024-02-21T10:34:28;87579.31;;;7.60;49.21
60049;BME280;66154;45.544;6.756;2024-02-21T10:39:31;87563.88;;;7.69;57.39
60049;BME280;66154;45.544;6.756;2024-02-21T10:44:33;87563.47;;;7.74;56.11
60049;BME280;66154;45.544;6.756;2024-02-21T10:49:37;87551.00;;;7.85;53.94
60049;BME280;66154;45.544;6.756;2024-02-21T10:54:45;87548.25;;;7.99;57.18
60049;BME280;66154;45.544;6.756;2024-02-21T10:59:48;87539.44;;;8.16;56.24
60049;BME280;66154;45.544;6.756;2024-02-21T11:04:49;87528.38;;;8.35;57.56
60049;BME280;66154;45.544;6.756;2024-02-21T11:09:53;87517.97;;;8.58;57.93
60049;BME280;66154;45.544;6.756;2024-02-21T11:15:04;87513.94;;;8.80;47.81
60049;BME280;66154;45.544;6.756;2024-02-21T11:20:13;87507.34;;;8.95;53.87
60049;BME280;66154;45.544;6.756;2024-02-21T11:25:21;87500.50;;;9.01;55.91
60049;BME280;66154;45.544;6.756;2024-02-21T11:30:26;87493.28;;;9.09;46.77
60049;BME280;66154;45.544;6.756;2024-02-21T11:35:31;87483.75;;;9.18;49.49
60049;BME280;66154;45.544;6.756;2024-02-21T11:40:33;87474.91;;;9.32;42.42
60049;BME280;66154;45.544;6.756;2024-02-21T11:45:34;87472.41;;;9.48;56.63
60049;BME280;66154;45.544;6.756;2024-02-21T11:50:35;87469.13;;;9.64;57.18
60049;BME280;66154;45.544;6.756;2024-02-21T11:55:40;87451.63;;;9.77;56.08
60049;BME280;66154;45.544;6.756;2024-02-21T12:00:40;87440.78;;;9.94;58.11
60049;BME280;66154;45.544;6.756;2024-02-21T12:05:41;87429.97;;;10.12;58.52
60049;BME280;66154;45.544;6.756;2024-02-21T12:10:42;87433.19;;;10.20;52.29
60049;BME280;66154;45.544;6.756;2024-02-21T12:15:47;87427.53;;;10.21;54.88
60049;BME280;66154;45.544;6.756;2024-02-21T12:20:49;87422.78;;;10.32;57.19
60049;BME280;66154;45.544;6.756;2024-02-21T12:25:51;87421.00;;;10.45;57.92
60049;BME280;66154;45.544;6.756;2024-02-21T12:30:54;87416.25;;;10.56;57.47
60049;BME280;66154;45.544;6.756;2024-02-21T12:35:55;87412.38;;;10.61;56.99
60049;BME280;66154;45.544;6.756;2024-02-21T12:40:56;87414.53;;;10.66;56.49
60049;BME280;66154;45.544;6.756;2024-02-21T12:46:00;87407.38;;;10.66;53.94
60049;BME280;66154;45.544;6.756;2024-02-21T12:51:01;87404.91;;;10.91;58.25
60049;BME280;66154;45.544;6.756;2024-02-21T12:56:02;87397.91;;;11.17;58.93
60049;BME280;66154;45.544;6.756;2024-02-21T13:01:05;87382.13;;;11.33;57.37
60049;BME280;66154;45.544;6.756;2024-02-21T13:06:05;87368.72;;;11.56;54.88
60049;BME280;66154;45.544;6.756;2024-02-21T13:11:10;87357.56;;;11.81;53.51
60049;BME280;66154;45.544;6.756;2024-02-21T13:16:12;87348.22;;;12.05;55.30
60049;BME280;66154;45.544;6.756;2024-02-21T13:21:13;87339.28;;;12.40;55.03
60049;BME280;66154;45.544;6.756;2024-02-21T13:26:13;87323.66;;;12.71;50.29
60049;BME280;66154;45.544;6.756;2024-02-21T13:31:15;87317.97;;;12.72;57.53
60049;BME280;66154;45.544;6.756;2024-02-21T13:36:16;87318.09;;;12.56;52.49
60049;BME280;66154;45.544;6.756;2024-02-21T13:41:17;87297.53;;;12.39;43.24
60049;BME280;66154;45.544;6.756;2024-02-21T13:46:18;87287.94;;;12.45;50.38
60049;BME280;66154;45.544;6.756;2024-02-21T13:51:18;87278.09;;;12.70;39.28
60049;BME280;66154;45.544;6.756;2024-02-21T13:56:20;87260.75;;;12.82;47.88
60049;BME280;66154;45.544;6.756;2024-02-21T14:01:20;87255.88;;;12.93;56.86
60049;BME280;66154;45.544;6.756;2024-02-21T14:06:21;87247.63;;;12.91;52.99
60049;BME280;66154;45.544;6.756;2024-02-21T14:11:21;87244.31;;;12.78;50.45
60049;BME280;66154;45.544;6.756;2024-02-21T14:16:22;87239.44;;;12.76;57.33
60049;BME280;66154;45.544;6.756;2024-02-21T14:21:23;87233.25;;;12.70;58.06
60049;BME280;66154;45.544;6.756;2024-02-21T14:26:23;87224.09;;;12.62;56.33
60049;BME280;66154;45.544;6.756;2024-02-21T14:31:24;87231.28;;;12.49;57.54
60049;BME280;66154;45.544;6.756;2024-02-21T14:36:26;87226.56;;;12.32;54.63
60049;BME280;66154;45.544;6.756;2024-02-21T14:41:27;87220.16;;;12.20;55.93
60049;BME280;66154;45.544;6.756;2024-02-21T14:46:28;87214.56;;;12.06;46.79
60049;BME280;66154;45.544;6.756;2024-02-21T14:51:29;87213.09;;;11.92;50.56
60049;BME280;66154;45.544;6.756;2024-02-21T14:56:31;87206.25;;;11.82;51.16
60049;BME280;66154;45.544;6.756;2024-02-21T15:01:40;87203.50;;;11.73;50.01
60049;BME280;66154;45.544;6.756;2024-02-21T15:06:41;87200.34;;;11.65;52.07
60049;BME280;66154;45.544;6.756;2024-02-21T15:11:41;87182.81;;;11.59;51.37
60049;BME280;66154;45.544;6.756;2024-02-21T15:16:43;87186.09;;;11.50;52.20
60049;BME280;66154;45.544;6.756;2024-02-21T15:21:44;87191.66;;;11.40;53.45
60049;BME280;66154;45.544;6.756;2024-02-21T15:26:45;87193.53;;;11.27;51.42
60049;BME280;66154;45.544;6.756;2024-02-21T15:31:45;87181.09;;;11.15;53.77
60049;BME280;66154;45.544;6.756;2024-02-21T15:36:46;87178.34;;;11.06;52.18
60049;BME280;66154;45.544;6.756;2024-02-21T15:41:47;87175.28;;;10.94;53.45
60049;BME280;66154;45.544;6.756;2024-02-21T15:46:48;87175.22;;;10.82;54.40
60049;BME280;66154;45.544;6.756;2024-02-21T15:51:49;87159.00;;;10.71;50.24
60049;BME280;66154;45.544;6.756;2024-02-21T15:56:49;87147.72;;;10.58;52.42
60049;BME280;66154;45.544;6.756;2024-02-21T16:01:50;87155.84;;;10.47;51.49
60049;BME280;66154;45.544;6.756;2024-02-21T16:06:51;87150.91;;;10.37;51.46
60049;BME280;66154;45.544;6.756;2024-02-21T16:11:51;87155.69;;;10.26;54.62
60049;BME280;66154;45.544;6.756;2024-02-21T16:16:52;87154.47;;;10.14;50.49
60049;BME280;66154;45.544;6.756;2024-02-21T16:21:52;87167.16;;;9.99;53.34
60049;BME280;66154;45.544;6.756;2024-02-21T16:26:53;87165.53;;;9.89;54.02
60049;BME280;66154;45.544;6.756;2024-02-21T16:31:54;87153.31;;;9.83;54.97
60049;BME280;66154;45.544;6.756;2024-02-21T16:36:55;87161.44;;;9.72;54.34
60049;BME280;66154;45.544;6.756;2024-02-21T16:41:57;87143.31;;;9.62;54.42
60049;BME280;66154;45.544;6.756;2024-02-21T16:47:04;87145.44;;;9.51;54.16
60049;BME280;66154;45.544;6.756;2024-02-21T16:52:05;87169.63;;;9.42;52.78
60049;BME280;66154;45.544;6.756;2024-02-21T16:57:05;87175.09;;;9.32;54.02
60049;BME280;66154;45.544;6.756;2024-02-21T17:02:07;87178.38;;;9.20;53.04
60049;BME280;66154;45.544;6.756;2024-02-21T17:07:07;87189.81;;;9.09;54.70
60049;BME280;66154;45.544;6.756;2024-02-21T17:12:08;87197.16;;;8.98;54.96
60049;BME280;66154;45.544;6.756;2024-02-21T17:17:08;87196.94;;;8.89;54.51
60049;BME280;66154;45.544;6.756;2024-02-21T17:22:09;87194.47;;;8.82;54.71
60049;BME280;66154;45.544;6.756;2024-02-21T17:27:10;87193.06;;;8.78;55.28
60049;BME280;66154;45.544;6.756;2024-02-21T17:32:11;87188.28;;;8.73;55.02
60049;BME280;66154;45.544;6.756;2024-02-21T17:37:11;87183.91;;;8.66;54.47
60049;BME280;66154;45.544;6.756;2024-02-21T17:42:12;87178.41;;;8.61;55.66
60049;BME280;66154;45.544;6.756;2024-02-21T17:47:12;87184.50;;;8.54;55.25
60049;BME280;66154;45.544;6.756;2024-02-21T17:52:13;87179.00;;;8.49;55.03
60049;BME280;66154;45.544;6.756;2024-02-21T17:57:14;87179.50;;;8.44;54.96
60049;BME280;66154;45.544;6.756;2024-02-21T18:02:15;87179.28;;;8.35;54.97
60049;BME280;66154;45.544;6.756;2024-02-21T18:07:20;87163.69;;;8.27;54.01
60049;BME280;66154;45.544;6.756;2024-02-21T18:12:24;87145.41;;;8.24;55.05
60049;BME280;66154;45.544;6.756;2024-02-21T18:17:24;87136.53;;;8.18;56.29
60049;BME280;66154;45.544;6.756;2024-02-21T18:22:25;87116.84;;;8.10;55.36
60049;BME280;66154;45.544;6.756;2024-02-21T18:27:26;87119.25;;;8.01;52.75
60049;BME280;66154;45.544;6.756;2024-02-21T18:32:28;87143.34;;;7.92;51.18
60049;BME280;66154;45.544;6.756;2024-02-21T18:37:28;87142.41;;;7.83;55.01
60049;BME280;66154;45.544;6.756;2024-02-21T18:42:29;87139.94;;;7.72;55.05
60049;BME280;66154;45.544;6.756;2024-02-21T18:47:31;87138.16;;;7.66;55.31
60049;BME280;66154;45.544;6.756;2024-02-21T18:52:32;87135.69;;;7.59;55.08
60049;BME280;66154;45.544;6.756;2024-02-21T18:57:32;87147.72;;;7.53;55.45
60049;BME280;66154;45.544;6.756;2024-02-21T19:02:34;87141.88;;;7.45;54.84
60049;BME280;66154;45.544;6.756;2024-02-21T19:07:34;87149.44;;;7.40;55.44
60049;BME280;66154;45.544;6.756;2024-02-21T19:12:35;87148.06;;;7.31;55.09
60049;BME280;66154;45.544;6.756;2024-02-21T19:17:36;87146.69;;;7.23;54.89
60049;BME280;66154;45.544;6.756;2024-02-21T19:22:38;87137.81;;;7.17;54.74
60049;BME280;66154;45.544;6.756;2024-02-21T19:27:40;87130.06;;;7.10;55.75
60049;BME280;66154;45.544;6.756;2024-02-21T19:32:41;87124.97;;;7.03;54.27
60049;BME280;66154;45.544;6.756;2024-02-21T19:37:41;87121.31;;;6.97;55.08
60049;BME280;66154;45.544;6.756;2024-02-21T19:42:43;87116.50;;;6.92;55.39
60049;BME280;66154;45.544;6.756;2024-02-21T19:47:43;87115.16;;;6.84;55.65
60049;BME280;66154;45.544;6.756;2024-02-21T19:52:44;87103.31;;;6.76;54.12
60049;BME280;66154;45.544;6.756;2024-02-21T19:57:44;87088.41;;;6.73;55.62
60049;BME280;66154;45.544;6.756;2024-02-21T20:02:46;87072.75;;;6.73;55.32
60049;BME280;66154;45.544;6.756;2024-02-21T20:07:48;87063.78;;;6.74;55.66
60049;BME280;66154;45.544;6.756;2024-02-21T20:12:49;87061.56;;;6.73;56.06
60049;BME280;66154;45.544;6.756;2024-02-21T20:17:49;87058.97;;;6.73;55.95
60049;BME280;66154;45.544;6.756;2024-02-21T20:22:50;87061.59;;;6.69;55.46
60049;BME280;66154;45.544;6.756;2024-02-21T20:27:50;87058.31;;;6.65;55.50
60049;BME280;66154;45.544;6.756;2024-02-21T20:32:51;87065.41;;;6.65;55.08
60049;BME280;66154;45.544;6.756;2024-02-21T20:37:53;87059.50;;;6.61;55.49
60049;BME280;66154;45.544;6.756;2024-02-21T20:42:53;87063.28;;;6.56;55.56
60049;BME280;66154;45.544;6.756;2024-02-21T20:47:54;87068.22;;;6.51;55.51
60049;BME280;66154;45.544;6.756;2024-02-21T20:52:54;87068.63;;;6.49;55.56
60049;BME280;66154;45.544;6.756;2024-02-21T20:57:55;87057.03;;;6.50;55.60
60049;BME280;66154;45.544;6.756;2024-02-21T21:02:55;87047.31;;;6.51;55.68
60049;BME280;66154;45.544;6.756;2024-02-21T21:07:56;87044.31;;;6.52;55.34
60049;BME280;66154;45.544;6.756;2024-02-21T21:12:56;87047.63;;;6.56;55.62
60049;BME280;66154;45.544;6.756;2024-02-21T21:17:57;87043.09;;;6.60;55.49
60049;BME280;66154;45.544;6.756;2024-02-21T21:22:57;87029.97;;;6.64;55.00
60049;BME280;66154;45.544;6.756;2024-02-21T21:27:58;87038.50;;;6.68;55.16
60049;BME280;66154;45.544;6.756;2024-02-21T21:32:58;87029.13;;;6.70;55.62
60049;BME280;66154;45.544;6.756;2024-02-21T21:37:59;87018.69;;;6.70;55.87
60049;BME280;66154;45.544;6.756;2024-02-21T21:43:00;87006.41;;;6.67;55.82
60049;BME280;66154;45.544;6.756;2024-02-21T21:48:02;87000.47;;;6.67;55.97
60049;BME280;66154;45.544;6.756;2024-02-21T21:53:02;87006.81;;;6.66;55.21
60049;BME280;66154;45.544;6.756;2024-02-21T21:58:03;87019.16;;;6.65;55.74
60049;BME280;66154;45.544;6.756;2024-02-21T22:03:04;87015.78;;;6.65;55.45
60049;BME280;66154;45.544;6.756;2024-02-21T22:08:04;87004.25;;;6.62;56.06
60049;BME280;66154;45.544;6.756;2024-02-21T22:13:05;86996.81;;;6.61;55.70
60049;BME280;66154;45.544;6.756;2024-02-21T22:18:06;86992.38;;;6.58;55.75
60049;BME280;66154;45.544;6.756;2024-02-21T22:23:07;86990.16;;;6.56;55.89
60049;BME280;66154;45.544;6.756;2024-02-21T22:28:09;86989.47;;;6.52;56.31
60049;BME280;66154;45.544;6.756;2024-02-21T22:33:09;86969.03;;;6.47;55.83
60049;BME280;66154;45.544;6.756;2024-02-21T22:38:10;86976.19;;;6.43;55.75
60049;BME280;66154;45.544;6.756;2024-02-21T22:43:11;86971.75;;;6.40;55.60
60049;BME280;66154;45.544;6.756;2024-02-21T22:48:11;86987.44;;;6.40;55.85
60049;BME280;66154;45.544;6.756;2024-02-21T22:53:12;86980.72;;;6.39;55.98
60049;BME280;66154;45.544;6.756;2024-02-21T22:58:13;86984.47;;;6.38;56.09
60049;BME280;66154;45.544;6.756;2024-02-21T23:03:13;86979.25;;;6.38;55.83
60049;BME280;66154;45.544;6.756;2024-02-21T23:08:14;86981.88;;;6.38;55.94
60049;BME280;66154;45.544;6.756;2024-02-21T23:13:15;86969.53;;;6.38;55.91
60049;BME280;66154;45.544;6.756;2024-02-21T23:18:15;86966.19;;;6.38;55.68
60049;BME280;66154;45.544;6.756;2024-02-21T23:23:16;86956.47;;;6.38;55.96
60049;BME280;66154;45.544;6.756;2024-02-21T23:28:16;86943.41;;;6.38;56.05
60049;BME280;66154;45.544;6.756;2024-02-21T23:33:17;86934.47;;;6.39;55.87
60049;BME280;66154;45.544;6.756;2024-02-21T23:38:17;86934.06;;;6.41;55.64
60049;BME280;66154;45.544;6.756;2024-02-21T23:43:18;86932.13;;;6.45;55.81
60049;BME280;66154;45.544;6.756;2024-02-21T23:48:18;86917.94;;;6.46;54.93
60049;BME280;66154;45.544;6.756;2024-02-21T23:53:20;86912.78;;;6.42;55.39
60049;BME280;66154;45.544;6.756;2024-02-21T23:58:20;86909.47;;;6.38;55.44
